createdAt,value
2022-11-05T00:00:51.938Z,97262.00
2022-11-05T00:03:56.973Z,97272.00
2022-11-05T00:06:54.702Z,97273.00
2022-11-05T00:09:41.942Z,97270.00
2022-11-05T00:12:39.755Z,97283.00
2022-11-05T00:15:44.945Z,97283.00
2022-11-05T00:18:24.008Z,97284.00
2022-11-05T00:21:10.948Z,97293.00
2022-11-05T00:24:14.972Z,97294.00
2022-11-05T00:26:54.591Z,97291.00
2022-11-05T00:29:40.958Z,97290.00
2022-11-05T00:32:20.625Z,97304.00
2022-11-05T00:35:06.923Z,97299.00
2022-11-05T00:37:50.030Z,97302.00
2022-11-05T00:40:35.964Z,97305.00
2022-11-05T00:43:34.639Z,97309.00
2022-11-05T00:46:21.962Z,97303.00
2022-11-05T00:49:26.958Z,97300.00
2022-11-05T00:52:24.717Z,97313.00
2022-11-05T00:55:10.973Z,97310.00
2022-11-05T00:57:50.061Z,97323.00
2022-11-05T01:00:38.949Z,97343.00
2022-11-05T01:03:22.068Z,97332.00
2022-11-05T01:06:20.951Z,97341.00
2022-11-05T01:09:08.986Z,97338.00
2022-11-05T01:11:48.665Z,97341.00
2022-11-05T01:14:34.960Z,97343.00
2022-11-05T01:17:14.676Z,97354.00
2022-11-05T01:20:00.962Z,97354.00
2022-11-05T01:22:40.631Z,97359.00
2022-11-05T01:25:27.965Z,97351.00
2022-11-05T01:28:08.850Z,97354.00
2022-11-05T01:30:54.964Z,97343.00
2022-11-05T01:33:34.643Z,97363.00
2022-11-05T01:36:21.972Z,97362.00
2022-11-05T01:39:09.978Z,97357.00
2022-11-05T01:41:49.038Z,97347.00
2022-11-05T01:45:04.974Z,97356.00
2022-11-05T01:48:14.306Z,97363.00
2022-11-05T01:51:10.996Z,97357.00
2022-11-05T01:54:05.991Z,97362.00
2022-11-05T01:57:02.209Z,97358.00
2022-11-05T01:59:56.986Z,97349.00
2022-11-05T02:02:46.680Z,97363.00
2022-11-05T02:05:33.982Z,97372.00
2022-11-05T02:08:33.812Z,97365.00
2022-11-05T02:11:22.782Z,97386.00
2022-11-05T02:14:10.006Z,97379.00
2022-11-05T02:17:10.066Z,97374.00
2022-11-05T02:20:41.999Z,97378.00
2022-11-05T02:23:39.055Z,97402.00
2022-11-05T02:26:58.016Z,97380.00
2022-11-05T02:30:18.018Z,97386.00
2022-11-05T02:33:29.948Z,97392.00
2022-11-05T02:36:46.007Z,97391.00
2022-11-05T02:40:01.045Z,97384.00
2022-11-05T02:43:07.164Z,97405.00
2022-11-05T02:46:16.021Z,97404.00
2022-11-05T02:49:12.011Z,97415.00
2022-11-05T02:52:04.761Z,97405.00
2022-11-05T02:55:06.006Z,97404.00
2022-11-05T02:57:47.332Z,97397.00
2022-11-05T03:00:57.015Z,97405.00
2022-11-05T03:03:46.553Z,97395.00
2022-11-05T03:07:15.052Z,97397.00
2022-11-05T03:10:13.010Z,97392.00
2022-11-05T03:13:11.351Z,97390.00
2022-11-05T03:16:08.021Z,97397.00
2022-11-05T03:19:21.015Z,97407.00
2022-11-05T03:22:11.178Z,97412.00
2022-11-05T03:25:08.046Z,97412.00
2022-11-05T03:27:54.970Z,97402.00
2022-11-05T03:30:43.017Z,97404.00
2022-11-05T03:33:30.136Z,97421.00
2022-11-05T03:36:26.009Z,97412.00
2022-11-05T03:39:18.042Z,97427.00
2022-11-05T03:42:00.123Z,97405.00
2022-11-05T03:44:55.039Z,97428.00
2022-11-05T03:47:43.142Z,97416.00
2022-11-05T03:50:55.042Z,97417.00
2022-11-05T03:53:42.086Z,97417.00
2022-11-05T03:56:52.016Z,97429.00
2022-11-05T03:59:40.054Z,97426.00
2022-11-05T04:02:24.861Z,97427.00
2022-11-05T04:05:11.042Z,97429.00
2022-11-05T04:08:14.107Z,97427.00
2022-11-05T04:11:18.055Z,97436.00
2022-11-05T04:13:57.719Z,97445.00
2022-11-05T04:17:02.060Z,97437.00
2022-11-05T04:20:09.050Z,97440.00
2022-11-05T04:23:06.632Z,97439.00
2022-11-05T04:25:52.051Z,97456.00
2022-11-05T04:28:51.076Z,97454.00
2022-11-05T04:31:37.057Z,97461.00
2022-11-05T04:34:18.012Z,97460.00
2022-11-05T04:37:04.056Z,97459.00
2022-11-05T04:39:50.051Z,97457.00
2022-11-05T04:42:29.751Z,97460.00
2022-11-05T04:45:17.308Z,97452.00
2022-11-05T04:47:56.768Z,97464.00
2022-11-05T04:50:45.062Z,97456.00
2022-11-05T04:53:24.765Z,97476.00
2022-11-05T04:56:33.081Z,97453.00
2022-11-05T04:59:12.802Z,97473.00
2022-11-05T05:01:59.161Z,97461.00
2022-11-05T05:04:38.728Z,97460.00
2022-11-05T05:07:25.087Z,97460.00
2022-11-05T05:10:14.089Z,97467.00
2022-11-05T05:12:53.133Z,97469.00
2022-11-05T05:15:39.088Z,97488.00
2022-11-05T05:18:18.135Z,97484.00
2022-11-05T05:21:24.077Z,97466.00
2022-11-05T05:24:03.141Z,97467.00
2022-11-05T05:26:56.306Z,97485.00
2022-11-05T05:29:35.131Z,97495.00
2022-11-05T05:32:21.106Z,97486.00
2022-11-05T05:35:00.204Z,97493.00
2022-11-05T05:37:46.078Z,97497.00
2022-11-05T05:40:32.072Z,97504.00
2022-11-05T05:43:12.089Z,97521.00
2022-11-05T05:45:58.091Z,97504.00
2022-11-05T05:48:37.821Z,97521.00
2022-11-05T05:51:25.097Z,97510.00
2022-11-05T05:54:05.046Z,97504.00
2022-11-05T05:56:51.090Z,97511.00
2022-11-05T05:59:30.760Z,97518.00
2022-11-05T06:02:18.161Z,97515.00
2022-11-05T06:05:04.096Z,97534.00
2022-11-05T06:07:43.186Z,97533.00
2022-11-05T06:10:31.108Z,97533.00
2022-11-05T06:13:10.428Z,97530.00
2022-11-05T06:15:56.108Z,97529.00
2022-11-05T06:18:37.234Z,97534.00
2022-11-05T06:21:24.113Z,97530.00
2022-11-05T06:24:03.204Z,97538.00
2022-11-05T06:26:51.118Z,97530.00
2022-11-05T06:29:30.173Z,97546.00
2022-11-05T06:32:16.128Z,97548.00
2022-11-05T06:35:02.150Z,97553.00
2022-11-05T06:37:42.197Z,97562.00
2022-11-05T06:40:28.180Z,97556.00
2022-11-05T06:43:08.142Z,97575.00
2022-11-05T06:45:54.102Z,97565.00
2022-11-05T06:48:34.522Z,97572.00
2022-11-05T06:51:21.104Z,97570.00
2022-11-05T06:54:00.803Z,97585.00
2022-11-05T06:56:47.124Z,97597.00
2022-11-05T06:59:26.814Z,97583.00
2022-11-05T07:02:13.218Z,97589.00
2022-11-05T07:04:59.138Z,97598.00
2022-11-05T07:07:39.244Z,97602.00
2022-11-05T07:10:26.138Z,97587.00
2022-11-05T07:13:08.407Z,97594.00
2022-11-05T07:15:55.121Z,97589.00
2022-11-05T07:18:34.202Z,97588.00
2022-11-05T07:21:21.137Z,97585.00
2022-11-05T07:24:00.183Z,97602.00
2022-11-05T07:26:46.133Z,97613.00
2022-11-05T07:29:25.175Z,97621.00
2022-11-05T07:32:12.146Z,97617.00
2022-11-05T07:34:58.138Z,97622.00
2022-11-05T07:37:50.416Z,97635.00
2022-11-05T07:40:40.193Z,97630.00
2022-11-05T07:43:19.806Z,97630.00
2022-11-05T07:46:09.883Z,97652.00
2022-11-05T07:48:52.784Z,97645.00
2022-11-05T07:51:39.152Z,97653.00
2022-11-05T07:54:18.819Z,97639.00
2022-11-05T07:57:05.146Z,97639.00
2022-11-05T07:59:44.909Z,97648.00
2022-11-05T08:02:31.318Z,97652.00
2022-11-05T08:05:17.347Z,97648.00
2022-11-05T08:07:56.471Z,97639.00
2022-11-05T08:10:44.151Z,97655.00
2022-11-05T08:13:24.460Z,97650.00
2022-11-05T08:16:12.146Z,97659.00
2022-11-05T08:18:51.238Z,97671.00
2022-11-05T08:21:37.178Z,97658.00
2022-11-05T08:24:16.250Z,97666.00
2022-11-05T08:27:02.170Z,97663.00
2022-11-05T08:29:41.229Z,97667.00
2022-11-05T08:32:27.180Z,97677.00
2022-11-05T08:35:13.156Z,97668.00
2022-11-05T08:38:02.313Z,97674.00
2022-11-05T08:40:49.190Z,97679.00
2022-11-05T08:43:29.054Z,97681.00
2022-11-05T08:46:15.171Z,97674.00
2022-11-05T08:48:54.837Z,97675.00
2022-11-05T08:51:41.185Z,97667.00
2022-11-05T08:54:27.812Z,97675.00
2022-11-05T08:57:07.184Z,97684.00
2022-11-05T08:59:46.860Z,97679.00
2022-11-05T09:02:33.255Z,97672.00
2022-11-05T09:05:19.187Z,97670.00
2022-11-05T09:08:05.270Z,97686.00
2022-11-05T09:10:45.226Z,97671.00
2022-11-05T09:13:25.915Z,97685.00
2022-11-05T09:16:13.173Z,97687.00
2022-11-05T09:19:01.496Z,97690.00
2022-11-05T09:21:40.169Z,97691.00
2022-11-05T09:24:19.877Z,97676.00
2022-11-05T09:27:06.190Z,97680.00
2022-11-05T09:29:45.958Z,97702.00
2022-11-05T09:32:32.210Z,97709.00
2022-11-05T09:35:18.177Z,97707.00
2022-11-05T09:38:00.962Z,97708.00
2022-11-05T09:41:06.204Z,97715.00
2022-11-05T09:44:01.252Z,97714.00
2022-11-05T09:47:01.198Z,97713.00
2022-11-05T09:50:04.213Z,97727.00
2022-11-05T09:52:44.676Z,97714.00
2022-11-05T09:55:50.227Z,97713.00
2022-11-05T09:58:44.849Z,97723.00
2022-11-05T10:01:42.320Z,97725.00
2022-11-05T10:04:25.445Z,97713.00
2022-11-05T10:07:20.205Z,97732.00
2022-11-05T10:10:15.244Z,97733.00
2022-11-05T10:13:00.687Z,97722.00
2022-11-05T10:15:59.214Z,97726.00
2022-11-05T10:18:44.271Z,97730.00
2022-11-05T10:21:59.544Z,97737.00
2022-11-05T10:24:29.313Z,97725.00
2022-11-05T10:27:31.234Z,97721.00
2022-11-05T10:30:18.236Z,97741.00
2022-11-05T10:33:02.361Z,97728.00
2022-11-05T10:36:00.221Z,97727.00
2022-11-05T10:38:39.958Z,97729.00
2022-11-05T10:42:07.242Z,97735.00
2022-11-05T10:45:24.225Z,97733.00
2022-11-05T10:48:43.467Z,97725.00
2022-11-05T10:51:31.224Z,97719.00
2022-11-05T10:54:21.308Z,97727.00
2022-11-05T10:57:35.287Z,97728.00
2022-11-05T11:00:27.236Z,97722.00
2022-11-05T11:03:29.606Z,97742.00
2022-11-05T11:06:45.220Z,97733.00
2022-11-05T11:09:34.694Z,97734.00
2022-11-05T11:12:47.261Z,97727.00
2022-11-05T11:15:41.258Z,97740.00
2022-11-05T11:18:48.371Z,97728.00
2022-11-05T11:21:37.280Z,97729.00
2022-11-05T11:24:33.296Z,97723.00
2022-11-05T11:27:36.252Z,97729.00
2022-11-05T11:30:32.474Z,97727.00
2022-11-05T11:33:12.803Z,97726.00
2022-11-05T11:36:00.289Z,97732.00
2022-11-05T11:38:41.254Z,97725.00
2022-11-05T11:41:48.303Z,97739.00
2022-11-05T11:44:41.476Z,97744.00
2022-11-05T11:47:31.350Z,97724.00
2022-11-05T11:50:48.298Z,97732.00
2022-11-05T11:53:27.582Z,97732.00
2022-11-05T11:56:27.639Z,97725.00
2022-11-05T11:59:46.829Z,97723.00
2022-11-05T12:03:02.113Z,97725.00
2022-11-05T12:05:59.329Z,97721.00
2022-11-05T12:09:08.399Z,97725.00
2022-11-05T12:12:06.294Z,97732.00
2022-11-05T12:15:24.327Z,97721.00
2022-11-05T12:18:46.563Z,97728.00
2022-11-05T12:22:16.327Z,97731.00
2022-11-05T12:25:16.343Z,97732.00
2022-11-05T12:29:12.339Z,97732.00
2022-11-05T12:32:30.362Z,97726.00
2022-11-05T12:35:28.504Z,97713.00
2022-11-05T12:38:55.725Z,97715.00
2022-11-05T12:41:55.324Z,97715.00
2022-11-05T12:45:21.318Z,97706.00
2022-11-05T12:48:39.312Z,97705.00
2022-11-05T12:51:42.367Z,97695.00
2022-11-05T12:55:15.324Z,97714.00
2022-11-05T12:58:23.308Z,97711.00
2022-11-05T13:01:24.394Z,97713.00
2022-11-05T13:04:22.753Z,97690.00
2022-11-05T13:07:10.335Z,97678.00
2022-11-05T13:10:06.353Z,97692.00
2022-11-05T13:12:57.368Z,97686.00
2022-11-05T13:15:57.287Z,97688.00
2022-11-05T13:18:53.404Z,97692.00
2022-11-05T13:21:43.334Z,97688.00
2022-11-05T13:24:52.324Z,97684.00
2022-11-05T13:27:57.845Z,97697.00
2022-11-05T13:30:58.338Z,97680.00
2022-11-05T13:33:44.873Z,97693.00
2022-11-05T13:37:26.326Z,97686.00
2022-11-05T13:40:18.327Z,97675.00
2022-11-05T13:43:43.414Z,97673.00
2022-11-05T13:47:15.337Z,97685.00
2022-11-05T13:50:53.331Z,97675.00
2022-11-05T13:53:50.038Z,97690.00
2022-11-05T13:56:50.353Z,97695.00
2022-11-05T14:00:07.320Z,97687.00
2022-11-05T14:02:58.400Z,97698.00
2022-11-05T14:05:48.334Z,97698.00
2022-11-05T14:08:34.407Z,97696.00
2022-11-05T14:11:46.329Z,97691.00
2022-11-05T14:14:39.316Z,97691.00
2022-11-05T14:18:00.354Z,97688.00
2022-11-05T14:20:46.333Z,97677.00
2022-11-05T14:23:39.243Z,97672.00
2022-11-05T14:26:40.588Z,97683.00
2022-11-05T14:29:23.609Z,97663.00
2022-11-05T14:32:15.377Z,97659.00
2022-11-05T14:35:07.339Z,97670.00
2022-11-05T14:37:57.457Z,97666.00
2022-11-05T14:40:50.351Z,97669.00
2022-11-05T14:43:40.356Z,97673.00
2022-11-05T14:46:27.341Z,97672.00
2022-11-05T14:49:09.758Z,97670.00
2022-11-05T14:52:01.368Z,97673.00
2022-11-05T14:55:04.375Z,97661.00
2022-11-05T14:57:52.998Z,97676.00
2022-11-05T15:00:46.412Z,97673.00
2022-11-05T15:03:47.106Z,97669.00
2022-11-05T15:06:38.346Z,97673.00
2022-11-05T15:09:28.540Z,97670.00
2022-11-05T15:12:47.374Z,97655.00
2022-11-05T15:15:45.402Z,97657.00
2022-11-05T15:18:49.558Z,97668.00
2022-11-05T15:21:42.373Z,97666.00
2022-11-05T15:24:27.447Z,97660.00
2022-11-05T15:27:25.471Z,97655.00
2022-11-05T15:30:28.408Z,97645.00
2022-11-05T15:33:20.708Z,97653.00
2022-11-05T15:36:07.681Z,97651.00
2022-11-05T15:39:15.271Z,97660.00
2022-11-05T15:41:56.394Z,97661.00
2022-11-05T15:44:54.610Z,97660.00
2022-11-05T15:47:43.434Z,97675.00
2022-11-05T15:50:29.436Z,97679.00
2022-11-05T15:53:51.502Z,97682.00
2022-11-05T15:57:02.429Z,97684.00
2022-11-05T15:59:42.156Z,97676.00
2022-11-05T16:02:36.579Z,97676.00
2022-11-05T16:05:26.409Z,97664.00
2022-11-05T16:08:06.124Z,97674.00
2022-11-05T16:11:00.433Z,97695.00
2022-11-05T16:13:41.663Z,97679.00
2022-11-05T16:16:27.426Z,97685.00
2022-11-05T16:19:40.724Z,97682.00
2022-11-05T16:22:27.450Z,97687.00
2022-11-05T16:25:48.531Z,97697.00
2022-11-05T16:28:33.587Z,97696.00
2022-11-05T16:31:20.417Z,97691.00
2022-11-05T16:34:08.452Z,97686.00
2022-11-05T16:36:54.410Z,97677.00
2022-11-05T16:39:33.596Z,97683.00
2022-11-05T16:42:28.429Z,97684.00
2022-11-05T16:45:07.571Z,97682.00
2022-11-05T16:47:53.419Z,97687.00
2022-11-05T16:50:44.426Z,97690.00
2022-11-05T16:53:24.310Z,97681.00
2022-11-05T16:56:10.519Z,97681.00
2022-11-05T16:58:50.409Z,97684.00
2022-11-05T17:01:37.509Z,97686.00
2022-11-05T17:04:17.081Z,97688.00
2022-11-05T17:07:04.446Z,97695.00
2022-11-05T17:09:44.385Z,97691.00
2022-11-05T17:12:30.446Z,97697.00
2022-11-05T17:15:19.268Z,97693.00
2022-11-05T17:18:07.454Z,97691.00
2022-11-05T17:21:00.450Z,97683.00
2022-11-05T17:23:40.527Z,97685.00
2022-11-05T17:26:26.493Z,97693.00
2022-11-05T17:29:05.516Z,97705.00
2022-11-05T17:31:51.461Z,97705.00
2022-11-05T17:34:30.555Z,97687.00
2022-11-05T17:37:16.440Z,97692.00
2022-11-05T17:39:56.706Z,97692.00
2022-11-05T17:42:42.423Z,97705.00
2022-11-05T17:45:22.534Z,97710.00
2022-11-05T17:48:09.467Z,97702.00
2022-11-05T17:51:02.472Z,97703.00
2022-11-05T17:53:43.677Z,97718.00
2022-11-05T17:56:35.683Z,97697.00
2022-11-05T17:59:17.147Z,97704.00
2022-11-05T18:02:03.608Z,97709.00
2022-11-05T18:04:43.250Z,97705.00
2022-11-05T18:07:29.457Z,97711.00
2022-11-05T18:10:09.750Z,97721.00
2022-11-05T18:12:59.238Z,97721.00
2022-11-05T18:15:40.271Z,97723.00
2022-11-05T18:18:26.468Z,97732.00
2022-11-05T18:21:12.463Z,97716.00
2022-11-05T18:23:51.513Z,97714.00
2022-11-05T18:26:38.461Z,97705.00
2022-11-05T18:29:17.596Z,97715.00
2022-11-05T18:32:03.467Z,97715.00
2022-11-05T18:34:42.558Z,97714.00
2022-11-05T18:37:28.483Z,97714.00
2022-11-05T18:40:07.516Z,97712.00
2022-11-05T18:42:53.465Z,97721.00
2022-11-05T18:45:32.671Z,97724.00
2022-11-05T18:48:18.445Z,97712.00
2022-11-05T18:51:04.460Z,97724.00
2022-11-05T18:53:44.253Z,97713.00
2022-11-05T18:56:18.165Z,97713.00
2022-11-05T18:58:45.282Z,97709.00
2022-11-05T19:01:27.547Z,97707.00
2022-11-05T19:03:56.365Z,97711.00
2022-11-05T19:06:26.855Z,97719.00
2022-11-05T19:08:55.895Z,97699.00
2022-11-05T19:11:25.249Z,97715.00
2022-11-05T19:13:52.080Z,97714.00
2022-11-05T19:16:25.318Z,97715.00
2022-11-05T19:18:52.058Z,97713.00
2022-11-05T19:21:22.791Z,97708.00
2022-11-05T19:23:50.370Z,97710.00
2022-11-05T19:26:28.126Z,97727.00
2022-11-05T19:28:58.576Z,97714.00
2022-11-05T19:31:24.973Z,97719.00
2022-11-05T19:33:52.551Z,97704.00
2022-11-05T19:36:21.148Z,97723.00
2022-11-05T19:39:01.020Z,97708.00
2022-11-05T19:41:27.276Z,97711.00
2022-11-05T19:43:54.623Z,97705.00
2022-11-05T19:46:23.035Z,97712.00
2022-11-05T19:48:49.993Z,97720.00
2022-11-05T19:51:24.267Z,97727.00
2022-11-05T19:53:51.988Z,97710.00
2022-11-05T19:56:25.181Z,97715.00
2022-11-05T19:58:52.961Z,97719.00
2022-11-05T20:01:21.416Z,97723.00
2022-11-05T20:03:48.286Z,97714.00
2022-11-05T20:06:22.248Z,97731.00
2022-11-05T20:09:15.146Z,97724.00
2022-11-05T20:11:36.960Z,97718.00
2022-11-05T20:14:04.653Z,97722.00
2022-11-05T20:16:39.846Z,97719.00
2022-11-05T20:19:13.281Z,97721.00
2022-11-05T20:21:39.695Z,97730.00
2022-11-05T20:24:06.927Z,97717.00
2022-11-05T20:26:33.321Z,97718.00
2022-11-05T20:28:59.652Z,97731.00
2022-11-05T20:31:25.785Z,97733.00
2022-11-05T20:33:52.595Z,97732.00
2022-11-05T20:36:22.236Z,97738.00
2022-11-05T20:38:50.949Z,97728.00
2022-11-05T20:41:18.143Z,97732.00
2022-11-05T20:43:44.684Z,97725.00
2022-11-05T20:46:14.920Z,97730.00
2022-11-05T20:48:43.354Z,97714.00
2022-11-05T20:51:19.340Z,97707.00
2022-11-05T20:53:45.830Z,97725.00
2022-11-05T20:56:25.223Z,97708.00
2022-11-05T20:58:52.133Z,97724.00
2022-11-05T21:01:19.476Z,97713.00
2022-11-05T21:03:47.120Z,97732.00
2022-11-05T21:06:14.207Z,97731.00
2022-11-05T21:08:41.024Z,97728.00
2022-11-05T21:11:07.656Z,97741.00
2022-11-05T21:13:35.075Z,97740.00
2022-11-05T21:16:04.890Z,97733.00
2022-11-05T21:18:34.445Z,97762.00
2022-11-05T21:21:12.409Z,97751.00
2022-11-05T21:23:38.623Z,97746.00
2022-11-05T21:26:06.445Z,97734.00
2022-11-05T21:28:33.570Z,97745.00
2022-11-05T21:31:01.785Z,97723.00
2022-11-05T21:33:28.453Z,97722.00
2022-11-05T21:35:54.845Z,97727.00
2022-11-05T21:38:21.470Z,97734.00
2022-11-05T21:40:47.652Z,97728.00
2022-11-05T21:43:14.532Z,97729.00
2022-11-05T21:45:43.362Z,97731.00
2022-11-05T21:48:11.187Z,97730.00
2022-11-05T21:51:00.327Z,97727.00
2022-11-05T21:53:45.316Z,97737.00
2022-11-05T21:56:43.145Z,97735.00
2022-11-05T21:59:32.408Z,97738.00
2022-11-05T22:02:02.157Z,97735.00
2022-11-05T22:04:35.615Z,97742.00
2022-11-05T22:07:02.990Z,97736.00
2022-11-05T22:09:29.341Z,97726.00
2022-11-05T22:11:56.432Z,97739.00
2022-11-05T22:14:23.310Z,97721.00
2022-11-05T22:16:49.536Z,97742.00
2022-11-05T22:19:15.874Z,97726.00
2022-11-05T22:21:42.238Z,97716.00
2022-11-05T22:24:09.480Z,97715.00
2022-11-05T22:26:37.320Z,97705.00
2022-11-05T22:29:05.363Z,97698.00
2022-11-05T22:31:35.981Z,97696.00
2022-11-05T22:34:04.556Z,97701.00
2022-11-05T22:36:31.820Z,97692.00
2022-11-05T22:38:58.059Z,97673.00
2022-11-05T22:41:24.229Z,97682.00
2022-11-05T22:43:50.558Z,97692.00
2022-11-05T22:46:20.764Z,97674.00
2022-11-05T22:48:48.353Z,97668.00
2022-11-05T22:51:22.539Z,97672.00
2022-11-05T22:53:49.224Z,97666.00
2022-11-05T22:56:19.497Z,97672.00
2022-11-05T22:58:46.724Z,97668.00
2022-11-05T23:01:14.835Z,97671.00
2022-11-05T23:03:43.942Z,97664.00
2022-11-05T23:06:37.591Z,97675.00
2022-11-05T23:09:34.891Z,97669.00
2022-11-05T23:12:03.725Z,97672.00
2022-11-05T23:14:30.309Z,97671.00
2022-11-05T23:17:15.224Z,97665.00
2022-11-05T23:20:00.286Z,97665.00
2022-11-05T23:22:48.320Z,97659.00
2022-11-05T23:25:20.048Z,97664.00
2022-11-05T23:27:52.521Z,97674.00
2022-11-05T23:30:25.810Z,97653.00
2022-11-05T23:32:55.117Z,97650.00
2022-11-05T23:35:41.252Z,97644.00
2022-11-05T23:38:26.817Z,97643.00
2022-11-05T23:41:11.473Z,97636.00
2022-11-05T23:43:56.196Z,97644.00
2022-11-05T23:46:40.859Z,97634.00
2022-11-05T23:49:07.137Z,97634.00
2022-11-05T23:51:33.264Z,97648.00
2022-11-05T23:53:59.403Z,97642.00
2022-11-05T23:56:25.534Z,97650.00
2022-11-05T23:58:51.783Z,97642.00
